Terminal Aerodrome Forecast
Issued by NWS

Home | Current Version | Previous Version | Text Only | Print | Product List | Glossary On
Versions: 1 2 3 4 5 6 7 8 9 10 11 12 13 14 15 16 17 18 19
000
FTUS43 KFGF 301120
TAFTVF
TAF
KTVF 301120Z 3012/3112 17010KT P6SM BKN250
     FM301900 17014G23KT P6SM SCT250
     FM310300 18015KT P6SM BKN200
      AMD LTD TO CLD VIS AND WIND=

USA.gov is the U.S. government's official web portal to all federal, state and local government web resources and services.